Terminal Aerodrome Forecast
Issued by NWS

Home | Current Version | Previous Version | Text Only | Print | Product List | Glossary On
Versions: 1 2 3 4 5 6 7 8 9 10 11 12 13 14 15 16 17 18 19 20 21 22 23 24 25 26 27 28 29 30 31 32 33 34
222
FTUS42 KCAE 250541
TAFCUB
TAF
KCUB 250541Z 2506/2606 VRB03KT P6SM SCT200
     FM251500 20006KT P6SM SCT060 SCT150
     FM260000 VRB03KT P6SM FEW150=

USA.gov is the U.S. government's official web portal to all federal, state and local government web resources and services.